Time;durP1;ratioP1;P1;durP2;ratioP2;P2;SDS_P1;SDS_P2;PMS_P1;PMS_P2;Temp;Humidity;BMP_temperature;BMP_pressure;BME280_temperature;BME280_humidity;BME280_pressure;Samples;Min_cycle;Max_cycle;Signal;HPM_P1;HPM_P2
2022/03/15 00:00:56;;;;;;;;;;;;;;;;;;4220318;28;819;-63
2022/03/15 00:03:17;;;;;;;;;;;;;;;;;;4206021;28;1299;-64
2022/03/15 00:05:37;;;;;;;;;;;;;;;;;;4221314;28;945;-64
2022/03/15 00:07:58;;;;;;;;;;;;;;;;;;4202714;28;965;-63
2022/03/15 00:10:19;;;;;;;;;;;;;;;;;;4221478;28;943;-64
2022/03/15 00:12:40;;;;;;;;;;;;;;;;;;4191728;28;1045;-64
2022/03/15 00:15:00;;;;;;;;;;;;;;;;;;4205965;28;923;-63
2022/03/15 00:17:22;;;;;;;;;;;;;;;;;;4221286;28;1132;-64
2022/03/15 00:19:44;;;;;;;;;;;;;;;;;;4221218;28;979;-63
2022/03/15 00:22:06;;;;;;;;;;;;;;;;;;4220978;28;915;-64
2022/03/15 00:24:27;;;;;;;;;;;;;;;;;;4221038;28;825;-64
2022/03/15 00:26:48;;;;;;;;;;;;;;;;;;4220751;28;1048;-64
2022/03/15 00:29:09;;;;;;;;;;;;;;;;;;4220240;28;809;-63
2022/03/15 00:31:30;;;;;;;;;;;;;;;;;;4220867;28;1041;-64
2022/03/15 00:33:53;;;;;;;;;;;;;;;;;;4191314;28;933;-64
2022/03/15 00:36:14;;;;;;;;;;;;;;;;;;4220637;28;1982;-63
2022/03/15 00:38:35;;;;;;;;;;;;;;;;;;4205319;28;834;-63
2022/03/15 00:40:55;;;;;;;;;;;;;;;;;;4205266;28;936;-63
2022/03/15 00:43:18;;;;;;;;;;;;;;;;;;4219503;28;929;-64
2022/03/15 00:45:39;;;;;;;;;;;;;;;;;;4219620;28;925;-64
2022/03/15 00:47:59;;;;;;;;;;;;;;;;;;4220599;28;879;-65
2022/03/15 00:50:20;;;;;;;;;;;;;;;;;;4219562;28;847;-64
2022/03/15 00:52:41;;;;;;;;;;;;;;;;;;4220559;28;901;-63
2022/03/15 00:55:05;;;;;;;;;;;;;;;;;;4205043;28;1068;-63
2022/03/15 00:57:25;;;;;;;;;;;;;;;;;;4220237;28;2000;-63
2022/03/15 00:59:46;;;;;;;;;;;;;;;;;;4219359;28;832;-63
2022/03/15 01:02:07;;;;;;;;;;;;;;;;;;4218386;28;2201;-64
2022/03/15 01:04:28;;;;;;;;;;;;;;;;;;4219256;28;1596;-64
2022/03/15 01:06:48;;;;;;;;;;;;;;;;;;4220049;28;931;-64
2022/03/15 01:09:09;;;;;;;;;;;;;;;;;;4205062;28;842;-64
2022/03/15 01:11:30;;;;;;;;;;;;;;;;;;4220304;28;890;-64
2022/03/15 01:13:51;;;;;;;;;;;;;;;;;;4220021;28;1046;-64
2022/03/15 01:16:12;;;;;;;;;;;;;;;;;;4204983;28;1909;-64
2022/03/15 01:18:34;;;;;;;;;;;;;;;;;;4219881;28;958;-64
2022/03/15 01:20:55;;;;;;;;;;;;;;;;;;4220059;28;884;-63
2022/03/15 01:23:17;;;;;;;;;;;;;;;;;;4219885;28;810;-64
2022/03/15 01:25:39;;;;;;;;;;;;;;;;;;4218844;28;898;-63
2022/03/15 01:28:00;;;;;;;;;;;;;;;;;;4219441;28;1253;-64
2022/03/15 01:30:23;;;;;;;;;;;;;;;;;;4204700;28;1000;-63
2022/03/15 01:32:44;;;;;;;;;;;;;;;;;;4219547;28;975;-63
2022/03/15 01:35:05;;;;;;;;;;;;;;;;;;4219030;28;886;-63
2022/03/15 01:37:26;;;;;;;;;;;;;;;;;;4219920;28;1902;-64
2022/03/15 01:39:46;;;;;;;;;;;;;;;;;;4220117;28;877;-63
2022/03/15 01:42:08;;;;;;;;;;;;;;;;;;4217918;28;832;-63
2022/03/15 01:44:30;;;;;;;;;;;;;;;;;;4220018;28;1248;-63
2022/03/15 01:46:51;;;;;;;;;;;;;;;;;;4218989;28;1070;-63
2022/03/15 01:49:13;;;;;;;;;;;;;;;;;;4219055;28;958;-63
2022/03/15 01:51:34;;;;;;;;;;;;;;;;;;4204552;28;928;-63
2022/03/15 01:53:55;;;;;;;;;;;;;;;;;;4219569;28;923;-63
2022/03/15 01:56:15;;;;;;;;;;;;;;;;;;4219836;28;1993;-63
2022/03/15 01:58:36;;;;;;;;;;;;;;;;;;4218494;28;1013;-63
2022/03/15 02:04:21;;;;;;;;;;;;;;;;;;4202347;28;1302;-63
2022/03/15 02:06:42;;;;;;;;;;;;;;;;;;4201719;28;927;-63
2022/03/15 02:09:03;;;;;;;;;;;;;;;;;;4186871;28;1017;-63
2022/03/15 02:11:27;;;;;;;;;;;;;;;;;;4202524;28;1037;-63
2022/03/15 02:13:49;;;;;;;;;;;;;;;;;;4202529;28;1270;-63
2022/03/15 02:16:10;;;;;;;;;;;;;;;;;;4201422;28;1914;-63
2022/03/15 02:18:31;;;;;;;;;;;;;;;;;;4202373;28;1137;-63
2022/03/15 02:20:52;;;;;;;;;;;;;;;;;;4202296;28;1030;-64
2022/03/15 02:23:14;;;;;;;;;;;;;;;;;;4202482;28;943;-63
2022/03/15 02:25:35;;;;;;;;;;;;;;;;;;4202645;28;940;-63
2022/03/15 02:27:55;;;;;;;;;;;;;;;;;;4202571;28;873;-63
2022/03/15 02:30:16;;;;;;;;;;;;;;;;;;4202546;28;1040;-64
2022/03/15 02:32:38;;;;;;;;;;;;;;;;;;4202278;28;1356;-63
2022/03/15 02:34:59;;;;;;;;;;;;;;;;;;4202809;28;837;-64
2022/03/15 02:37:20;;;;;;;;;;;;;;;;;;4187080;28;1906;-63
2022/03/15 02:39:42;;;;;;;;;;;;;;;;;;4202550;28;945;-64
2022/03/15 02:42:02;;;;;;;;;;;;;;;;;;4187309;28;969;-64
2022/03/15 02:44:23;;;;;;;;;;;;;;;;;;4202115;28;1238;-64
2022/03/15 02:46:44;;;;;;;;;;;;;;;;;;4199898;28;930;-64
2022/03/15 02:49:04;;;;;;;;;;;;;;;;;;4202358;28;826;-64
2022/03/15 02:51:25;;;;;;;;;;;;;;;;;;4201066;28;840;-64
2022/03/15 02:53:46;;;;;;;;;;;;;;;;;;4204611;28;947;-63
2022/03/15 02:56:11;;;;;;;;;;;;;;;;;;4189955;28;998;-63
2022/03/15 02:58:31;;;;;;;;;;;;;;;;;;4204771;28;803;-63
2022/03/15 03:00:52;;;;;;;;;;;;;;;;;;4205262;28;1023;-63
2022/03/15 03:03:13;;;;;;;;;;;;;;;;;;4204227;28;877;-63
2022/03/15 03:05:33;;;;;;;;;;;;;;;;;;4189822;28;945;-63
2022/03/15 03:07:54;;;;;;;;;;;;;;;;;;4205381;28;920;-64
2022/03/15 03:10:16;;;;;;;;;;;;;;;;;;4205551;28;1024;-64
2022/03/15 03:12:41;;;;;;;;;;;;;;;;;;4204321;28;1278;-63
2022/03/15 03:15:02;;;;;;;;;;;;;;;;;;4190296;28;1073;-65
2022/03/15 03:17:24;;;;;;;;;;;;;;;;;;4205264;28;1902;-63
2022/03/15 03:19:45;;;;;;;;;;;;;;;;;;4190363;28;992;-63
2022/03/15 03:22:06;;;;;;;;;;;;;;;;;;4204060;28;1173;-63
2022/03/15 03:24:27;;;;;;;;;;;;;;;;;;4205274;28;755;-64
2022/03/15 03:26:47;;;;;;;;;;;;;;;;;;4205189;28;865;-64
2022/03/15 03:29:09;;;;;;;;;;;;;;;;;;4190789;28;834;-64
2022/03/15 03:31:30;;;;;;;;;;;;;;;;;;4175660;28;938;-63
2022/03/15 03:33:51;;;;;;;;;;;;;;;;;;4205228;28;1007;-63
2022/03/15 03:36:12;;;;;;;;;;;;;;;;;;4204890;28;826;-63
2022/03/15 03:38:32;;;;;;;;;;;;;;;;;;4205101;28;1976;-64
2022/03/15 03:40:54;;;;;;;;;;;;;;;;;;4204201;28;993;-64
2022/03/15 03:43:15;;;;;;;;;;;;;;;;;;4204472;28;1166;-64
2022/03/15 03:45:36;;;;;;;;;;;;;;;;;;4189901;28;1028;-64
2022/03/15 03:47:56;;;;;;;;;;;;;;;;;;4205251;28;1123;-63
2022/03/15 03:50:17;;;;;;;;;;;;;;;;;;4204889;28;810;-64
2022/03/15 03:52:38;;;;;;;;;;;;;;;;;;4189843;28;1026;-63
2022/03/15 03:55:00;;;;;;;;;;;;;;;;;;4205089;28;822;-64
2022/03/15 03:57:21;;;;;;;;;;;;;;;;;;4189523;28;1995;-64
2022/03/15 03:59:41;;;;;;;;;;;;;;;;;;4204607;28;971;-63
2022/03/15 04:02:02;;;;;;;;;;;;;;;;;;4204781;28;951;-64
2022/03/15 04:04:22;;;;;;;;;;;;;;;;;;4188527;28;998;-64
2022/03/15 04:06:43;;;;;;;;;;;;;;;;;;4203488;28;855;-64
2022/03/15 04:09:05;;;;;;;;;;;;;;;;;;4204523;28;822;-63
2022/03/15 04:11:25;;;;;;;;;;;;;;;;;;4204587;28;875;-63
2022/03/15 04:13:46;;;;;;;;;;;;;;;;;;4204197;28;1018;-64
2022/03/15 04:16:06;;;;;;;;;;;;;;;;;;4204408;28;933;-64
2022/03/15 04:18:27;;;;;;;;;;;;;;;;;;4188746;28;1933;-64
2022/03/15 04:20:48;;;;;;;;;;;;;;;;;;4203990;28;1251;-64
2022/03/15 04:23:09;;;;;;;;;;;;;;;;;;4188772;28;961;-63
2022/03/15 04:25:30;;;;;;;;;;;;;;;;;;4203094;28;1125;-64
2022/03/15 04:27:54;;;;;;;;;;;;;;;;;;4189101;28;965;-64
2022/03/15 04:30:15;;;;;;;;;;;;;;;;;;4188983;28;896;-63
2022/03/15 04:32:36;;;;;;;;;;;;;;;;;;4204352;28;927;-63
2022/03/15 04:34:56;;;;;;;;;;;;;;;;;;4202894;28;937;-64
2022/03/15 04:37:18;;;;;;;;;;;;;;;;;;4203329;28;1910;-63
2022/03/15 04:39:39;;;;;;;;;;;;;;;;;;4204107;28;825;-63
2022/03/15 04:42:00;;;;;;;;;;;;;;;;;;4203591;28;821;-63
2022/03/15 04:44:21;;;;;;;;;;;;;;;;;;4203083;28;1238;-64
2022/03/15 04:46:42;;;;;;;;;;;;;;;;;;4189047;28;868;-63
2022/03/15 04:49:03;;;;;;;;;;;;;;;;;;4204100;28;944;-64
2022/03/15 04:51:25;;;;;;;;;;;;;;;;;;4189187;28;843;-63
2022/03/15 04:53:45;;;;;;;;;;;;;;;;;;4204307;28;874;-64
2022/03/15 04:56:06;;;;;;;;;;;;;;;;;;4204275;28;818;-63
2022/03/15 04:58:27;;;;;;;;;;;;;;;;;;4203182;28;1985;-64
2022/03/15 05:00:49;;;;;;;;;;;;;;;;;;4203735;28;1025;-63
2022/03/15 05:03:09;;;;;;;;;;;;;;;;;;4188757;28;960;-63
2022/03/15 05:05:30;;;;;;;;;;;;;;;;;;4189065;28;1382;-63
2022/03/15 05:07:51;;;;;;;;;;;;;;;;;;4188981;28;854;-63
2022/03/15 05:12:50;;;;;;;;;;;;;;;;;;4188850;28;1047;-64
2022/03/15 05:15:10;;;;;;;;;;;;;;;;;;4202701;28;1052;-64
2022/03/15 05:17:31;;;;;;;;;;;;;;;;;;4188694;28;1942;-63
2022/03/15 05:19:52;;;;;;;;;;;;;;;;;;4188674;28;877;-62
2022/03/15 05:22:15;;;;;;;;;;;;;;;;;;4203660;28;953;-63
2022/03/15 05:24:36;;;;;;;;;;;;;;;;;;4202589;28;969;-63
2022/03/15 05:26:57;;;;;;;;;;;;;;;;;;4203570;28;850;-60
2022/03/15 05:29:19;;;;;;;;;;;;;;;;;;4203470;28;1018;-62
2022/03/15 05:31:40;;;;;;;;;;;;;;;;;;4203988;28;1011;-62
2022/03/15 05:34:01;;;;;;;;;;;;;;;;;;4203610;28;1020;-62
2022/03/15 05:36:22;;;;;;;;;;;;;;;;;;4203687;28;875;-66
2022/03/15 05:38:42;;;;;;;;;;;;;;;;;;4204967;28;1901;-63
2022/03/15 05:41:05;;;;;;;;;;;;;;;;;;4204752;28;792;-63
2022/03/15 05:43:26;;;;;;;;;;;;;;;;;;4204645;28;877;-64
2022/03/15 05:45:46;;;;;;;;;;;;;;;;;;4203856;28;844;-64
2022/03/15 05:48:07;;;;;;;;;;;;;;;;;;4189249;28;876;-64
2022/03/15 05:50:28;;;;;;;;;;;;;;;;;;4203189;28;1026;-64
2022/03/15 05:52:49;;;;;;;;;;;;;;;;;;4204425;28;987;-64
2022/03/15 05:55:10;;;;;;;;;;;;;;;;;;4204890;28;853;-64
2022/03/15 05:57:31;;;;;;;;;;;;;;;;;;4204681;28;1909;-64
2022/03/15 05:59:52;;;;;;;;;;;;;;;;;;4204842;28;842;-64
2022/03/15 06:02:12;;;;;;;;;;;;;;;;;;4204400;28;1064;-64
2022/03/15 06:04:34;;;;;;;;;;;;;;;;;;4204656;28;913;-64
2022/03/15 06:06:55;;;;;;;;;;;;;;;;;;4203808;28;1037;-64
2022/03/15 06:09:16;;;;;;;;;;;;;;;;;;4204840;28;834;-64
2022/03/15 06:11:39;;;;;;;;;;;;;;;;;;4204817;28;870;-64
2022/03/15 06:13:59;;;;;;;;;;;;;;;;;;4205182;28;952;-64
2022/03/15 06:16:20;;;;;;;;;;;;;;;;;;4204596;28;872;-64
2022/03/15 06:18:41;;;;;;;;;;;;;;;;;;4204195;28;1905;-64
2022/03/15 06:21:03;;;;;;;;;;;;;;;;;;4204948;28;923;-64
2022/03/15 06:23:24;;;;;;;;;;;;;;;;;;4189399;28;853;-64
2022/03/15 06:25:44;;;;;;;;;;;;;;;;;;4204632;28;941;-64
2022/03/15 06:28:06;;;;;;;;;;;;;;;;;;4206110;28;965;-64
2022/03/15 06:30:27;;;;;;;;;;;;;;;;;;4207535;28;846;-64
2022/03/15 06:32:48;;;;;;;;;;;;;;;;;;4207436;28;966;-64
2022/03/15 06:35:09;;;;;;;;;;;;;;;;;;4207671;28;880;-64
2022/03/15 06:37:29;;;;;;;;;;;;;;;;;;4207328;28;858;-64
2022/03/15 06:39:50;;;;;;;;;;;;;;;;;;4207146;28;1069;-64
2022/03/15 06:42:11;;;;;;;;;;;;;;;;;;4207598;28;833;-64
2022/03/15 06:44:32;;;;;;;;;;;;;;;;;;4207529;28;1083;-64
2022/03/15 06:46:53;;;;;;;;;;;;;;;;;;4207586;28;989;-64
2022/03/15 06:49:14;;;;;;;;;;;;;;;;;;4207493;28;1072;-64
2022/03/15 06:51:34;;;;;;;;;;;;;;;;;;4207433;28;821;-64
2022/03/15 06:53:55;;;;;;;;;;;;;;;;;;4205929;28;1031;-64
2022/03/15 06:56:15;;;;;;;;;;;;;;;;;;4207196;28;1512;-64
2022/03/15 06:58:36;;;;;;;;;;;;;;;;;;4206630;28;1977;-64
2022/03/15 07:00:57;;;;;;;;;;;;;;;;;;4206666;28;1013;-65
2022/03/15 07:03:17;;;;;;;;;;;;;;;;;;4206044;28;1035;-64
2022/03/15 07:05:38;;;;;;;;;;;;;;;;;;4191825;28;885;-64
2022/03/15 07:08:01;;;;;;;;;;;;;;;;;;4207118;28;1124;-65
2022/03/15 07:10:22;;;;;;;;;;;;;;;;;;4206924;28;1417;-63
2022/03/15 07:12:43;;;;;;;;;;;;;;;;;;4207001;28;1071;-64
2022/03/15 07:15:04;;;;;;;;;;;;;;;;;;4206884;28;865;-65
2022/03/15 07:17:24;;;;;;;;;;;;;;;;;;4191498;28;1019;-64
2022/03/15 07:19:45;;;;;;;;;;;;;;;;;;4205615;28;1981;-64
2022/03/15 07:22:06;;;;;;;;;;;;;;;;;;4206999;28;896;-63
2022/03/15 07:24:27;;;;;;;;;;;;;;;;;;4206916;28;1090;-63
2022/03/15 07:26:47;;;;;;;;;;;;;;;;;;4206644;28;814;-64
2022/03/15 07:29:08;;;;;;;;;;;;;;;;;;4206606;28;1012;-64
2022/03/15 07:31:28;;;;;;;;;;;;;;;;;;4206629;28;829;-64
2022/03/15 07:33:49;;;;;;;;;;;;;;;;;;4206378;28;934;-65
2022/03/15 07:36:10;;;;;;;;;;;;;;;;;;4190900;28;1006;-64
2022/03/15 07:38:32;;;;;;;;;;;;;;;;;;4206033;28;1906;-64
2022/03/15 07:40:53;;;;;;;;;;;;;;;;;;4205810;28;963;-66
2022/03/15 07:43:14;;;;;;;;;;;;;;;;;;4206415;28;1060;-63
2022/03/15 07:45:34;;;;;;;;;;;;;;;;;;4206445;28;1324;-64
2022/03/15 07:47:55;;;;;;;;;;;;;;;;;;4206612;28;989;-64
2022/03/15 07:50:16;;;;;;;;;;;;;;;;;;4205809;28;861;-64
2022/03/15 07:52:37;;;;;;;;;;;;;;;;;;4206276;28;1076;-64
2022/03/15 07:54:58;;;;;;;;;;;;;;;;;;4206108;28;850;-64
2022/03/15 07:57:19;;;;;;;;;;;;;;;;;;4205765;28;1111;-64
2022/03/15 07:59:39;;;;;;;;;;;;;;;;;;4206061;28;1992;-64
2022/03/15 08:02:00;;;;;;;;;;;;;;;;;;4191230;28;962;-64
2022/03/15 08:04:21;;;;;;;;;;;;;;;;;;4206234;28;1003;-64
2022/03/15 08:06:41;;;;;;;;;;;;;;;;;;4206318;28;859;-64
2022/03/15 08:09:02;;;;;;;;;;;;;;;;;;4206219;28;866;-64
2022/03/15 08:11:23;;;;;;;;;;;;;;;;;;4206933;28;795;-64
2022/03/15 08:13:43;;;;;;;;;;;;;;;;;;4206158;28;963;-64
2022/03/15 08:16:04;;;;;;;;;;;;;;;;;;4206336;28;1102;-64
2022/03/15 08:18:25;;;;;;;;;;;;;;;;;;4206257;28;992;-64
2022/03/15 08:20:46;;;;;;;;;;;;;;;;;;4205872;28;869;-64
2022/03/15 08:23:07;;;;;;;;;;;;;;;;;;4206244;28;878;-64
2022/03/15 08:25:28;;;;;;;;;;;;;;;;;;4205676;28;1028;-65
2022/03/15 08:27:48;;;;;;;;;;;;;;;;;;4205877;28;888;-64
2022/03/15 08:30:09;;;;;;;;;;;;;;;;;;4205868;28;825;-64
2022/03/15 08:32:30;;;;;;;;;;;;;;;;;;4205468;28;787;-64
2022/03/15 08:34:50;;;;;;;;;;;;;;;;;;4205503;28;861;-64
2022/03/15 08:37:12;;;;;;;;;;;;;;;;;;4205624;28;830;-64
2022/03/15 08:39:33;;;;;;;;;;;;;;;;;;4205242;28;1981;-64
2022/03/15 08:41:53;;;;;;;;;;;;;;;;;;4205164;28;929;-64
2022/03/15 08:44:14;;;;;;;;;;;;;;;;;;4205110;28;1057;-64
2022/03/15 08:46:35;;;;;;;;;;;;;;;;;;4205134;28;882;-64
2022/03/15 08:48:59;;;;;;;;;;;;;;;;;;4205417;28;936;-64
2022/03/15 08:51:20;;;;;;;;;;;;;;;;;;4204064;28;907;-64
2022/03/15 08:53:41;;;;;;;;;;;;;;;;;;4205336;28;869;-64
2022/03/15 08:56:02;;;;;;;;;;;;;;;;;;4205162;28;935;-64
2022/03/15 08:58:22;;;;;;;;;;;;;;;;;;4204068;28;967;-64
2022/03/15 09:00:43;;;;;;;;;;;;;;;;;;4205027;28;948;-64
2022/03/15 09:03:04;;;;;;;;;;;;;;;;;;4205104;28;888;-64
2022/03/15 09:05:26;;;;;;;;;;;;;;;;;;4203980;28;840;-64
2022/03/15 09:07:49;;;;;;;;;;;;;;;;;;4189594;28;969;-65
2022/03/15 09:10:09;;;;;;;;;;;;;;;;;;4204810;28;986;-63
2022/03/15 09:12:30;;;;;;;;;;;;;;;;;;4205296;28;878;-64
2022/03/15 09:14:51;;;;;;;;;;;;;;;;;;4204954;28;941;-64
2022/03/15 09:17:11;;;;;;;;;;;;;;;;;;4204829;28;931;-64
2022/03/15 09:19:32;;;;;;;;;;;;;;;;;;4204949;28;1918;-64
2022/03/15 09:21:53;;;;;;;;;;;;;;;;;;4203632;28;1045;-63
2022/03/15 09:24:13;;;;;;;;;;;;;;;;;;4204478;28;981;-64
2022/03/15 09:26:36;;;;;;;;;;;;;;;;;;4204888;28;918;-64
2022/03/15 09:28:56;;;;;;;;;;;;;;;;;;4204778;28;985;-64
2022/03/15 09:31:17;;;;;;;;;;;;;;;;;;4203674;28;864;-64
2022/03/15 09:33:37;;;;;;;;;;;;;;;;;;4189722;28;868;-64
2022/03/15 09:35:58;;;;;;;;;;;;;;;;;;4204760;28;999;-64
2022/03/15 09:38:21;;;;;;;;;;;;;;;;;;4204257;28;846;-64
2022/03/15 09:40:41;;;;;;;;;;;;;;;;;;4203466;28;1905;-64
2022/03/15 09:43:02;;;;;;;;;;;;;;;;;;4204545;28;878;-64
2022/03/15 09:45:23;;;;;;;;;;;;;;;;;;4198183;28;1166;-65
2022/03/15 09:47:43;;;;;;;;;;;;;;;;;;4171414;28;1007;-64
2022/03/15 09:50:04;;;;;;;;;;;;;;;;;;4171317;28;879;-65
2022/03/15 09:52:25;;;;;;;;;;;;;;;;;;4171233;28;1000;-64
2022/03/15 09:54:46;;;;;;;;;;;;;;;;;;4171002;28;977;-64
2022/03/15 09:57:07;;;;;;;;;;;;;;;;;;4171262;28;957;-64
2022/03/15 09:59:28;;;;;;;;;;;;;;;;;;4169888;28;1987;-64
2022/03/15 10:01:50;;;;;;;;;;;;;;;;;;4169248;28;998;-64
2022/03/15 10:04:10;;;;;;;;;;;;;;;;;;4170827;28;920;-65
2022/03/15 10:06:31;;;;;;;;;;;;;;;;;;4170943;28;894;-64
2022/03/15 10:08:51;;;;;;;;;;;;;;;;;;4170871;28;855;-64
2022/03/15 10:11:12;;;;;;;;;;;;;;;;;;4170827;28;990;-64
2022/03/15 10:13:33;;;;;;;;;;;;;;;;;;4171130;28;1022;-64
2022/03/15 10:15:54;;;;;;;;;;;;;;;;;;4170775;28;1269;-64
2022/03/15 10:18:15;;;;;;;;;;;;;;;;;;4170612;28;875;-64
2022/03/15 10:20:36;;;;;;;;;;;;;;;;;;4170334;28;1979;-64
2022/03/15 10:22:56;;;;;;;;;;;;;;;;;;4170749;28;956;-63
2022/03/15 10:25:20;;;;;;;;;;;;;;;;;;4170609;28;876;-64
2022/03/15 10:27:41;;;;;;;;;;;;;;;;;;4170567;28;1118;-64
2022/03/15 10:30:03;;;;;;;;;;;;;;;;;;4170685;28;1148;-64
2022/03/15 10:32:23;;;;;;;;;;;;;;;;;;4170245;28;1006;-64
2022/03/15 10:34:44;;;;;;;;;;;;;;;;;;4170507;28;939;-65
2022/03/15 10:37:05;;;;;;;;;;;;;;;;;;4170474;28;908;-64
2022/03/15 10:39:26;;;;;;;;;;;;;;;;;;4170432;28;1913;-64
2022/03/15 10:41:46;;;;;;;;;;;;;;;;;;4170617;28;981;-64
2022/03/15 10:44:07;;;;;;;;;;;;;;;;;;4179234;28;1069;-64
2022/03/15 10:46:28;;;;;;;;;;;;;;;;;;4203388;28;1020;-64
2022/03/15 10:48:49;;;;;;;;;;;;;;;;;;4203558;28;957;-64
2022/03/15 10:51:10;;;;;;;;;;;;;;;;;;4203675;28;933;-64
2022/03/15 10:53:30;;;;;;;;;;;;;;;;;;4203191;28;950;-64
2022/03/15 10:55:51;;;;;;;;;;;;;;;;;;4203391;28;829;-64
2022/03/15 10:58:13;;;;;;;;;;;;;;;;;;4203691;28;1072;-64
2022/03/15 11:00:35;;;;;;;;;;;;;;;;;;4203344;28;1992;-65
2022/03/15 11:02:56;;;;;;;;;;;;;;;;;;4203417;28;1027;-65
2022/03/15 11:05:17;;;;;;;;;;;;;;;;;;4203027;28;1016;-64
2022/03/15 11:07:38;;;;;;;;;;;;;;;;;;4203026;28;879;-64
2022/03/15 11:09:59;;;;;;;;;;;;;;;;;;4203345;28;845;-64
2022/03/15 11:12:20;;;;;;;;;;;;;;;;;;4203168;28;1101;-64
2022/03/15 11:14:41;;;;;;;;;;;;;;;;;;4205314;28;1011;-64
2022/03/15 11:17:01;;;;;;;;;;;;;;;;;;4205936;28;821;-65
2022/03/15 11:19:22;;;;;;;;;;;;;;;;;;4205837;28;887;-64
2022/03/15 11:21:44;;;;;;;;;;;;;;;;;;4204488;28;1049;-64
2022/03/15 11:24:05;;;;;;;;;;;;;;;;;;4205730;28;832;-64
2022/03/15 11:26:26;;;;;;;;;;;;;;;;;;4205540;28;1022;-64
2022/03/15 11:28:47;;;;;;;;;;;;;;;;;;4190490;28;1022;-64
2022/03/15 11:31:08;;;;;;;;;;;;;;;;;;4205468;28;1143;-64
2022/03/15 11:33:30;;;;;;;;;;;;;;;;;;4205389;28;1103;-64
2022/03/15 11:35:51;;;;;;;;;;;;;;;;;;4205710;28;1075;-64
2022/03/15 11:38:13;;;;;;;;;;;;;;;;;;4205508;28;882;-64
2022/03/15 11:40:34;;;;;;;;;;;;;;;;;;4205033;28;1910;-64
2022/03/15 11:42:57;;;;;;;;;;;;;;;;;;4205439;28;960;-66
2022/03/15 11:45:17;;;;;;;;;;;;;;;;;;4205432;28;1066;-65
2022/03/15 11:47:38;;;;;;;;;;;;;;;;;;4205286;28;933;-64
2022/03/15 11:49:59;;;;;;;;;;;;;;;;;;4205081;28;869;-65
2022/03/15 11:52:20;;;;;;;;;;;;;;;;;;4205207;28;1009;-65
2022/03/15 11:54:40;;;;;;;;;;;;;;;;;;4205626;28;1381;-64
2022/03/15 11:57:02;;;;;;;;;;;;;;;;;;4205434;28;1009;-64
2022/03/15 11:59:22;;;;;;;;;;;;;;;;;;4205480;28;819;-65
2022/03/15 12:01:44;;;;;;;;;;;;;;;;;;4189983;28;1902;-64
2022/03/15 12:04:04;;;;;;;;;;;;;;;;;;4205153;28;991;-65
2022/03/15 12:06:25;;;;;;;;;;;;;;;;;;4205338;28;925;-64
2022/03/15 12:08:48;;;;;;;;;;;;;;;;;;4204897;28;1086;-64
2022/03/15 12:11:08;;;;;;;;;;;;;;;;;;4204709;28;1031;-65
2022/03/15 12:13:29;;;;;;;;;;;;;;;;;;4203875;28;1028;-65
2022/03/15 12:15:50;;;;;;;;;;;;;;;;;;4205006;28;857;-64
2022/03/15 12:18:23;;;;;;;;;;;;;;;;;;4204839;28;1005;-64
2022/03/15 12:20:46;;;;;;;;;;;;;;;;;;4204882;28;1910;-64
2022/03/15 12:23:08;;;;;;;;;;;;;;;;;;4204270;28;969;-65
2022/03/15 12:25:28;;;;;;;;;;;;;;;;;;4204015;28;933;-65
2022/03/15 12:27:49;;;;;;;;;;;;;;;;;;4204727;28;989;-64
2022/03/15 12:30:12;;;;;;;;;;;;;;;;;;4189429;28;1388;-64
2022/03/15 12:32:33;;;;;;;;;;;;;;;;;;4204062;28;1016;-64
2022/03/15 12:34:55;;;;;;;;;;;;;;;;;;4189574;28;982;-65
2022/03/15 12:37:16;;;;;;;;;;;;;;;;;;4204521;28;1128;-64
2022/03/15 12:39:37;;;;;;;;;;;;;;;;;;4204523;28;950;-64
2022/03/15 12:41:57;;;;;;;;;;;;;;;;;;4204303;28;1992;-65
2022/03/15 12:44:18;;;;;;;;;;;;;;;;;;4204170;28;1061;-64
2022/03/15 12:46:39;;;;;;;;;;;;;;;;;;4203697;28;1013;-64
2022/03/15 12:49:00;;;;;;;;;;;;;;;;;;4204398;28;952;-64
2022/03/15 12:51:20;;;;;;;;;;;;;;;;;;4204313;28;808;-64
2022/03/15 12:53:42;;;;;;;;;;;;;;;;;;4204270;28;818;-64
2022/03/15 12:56:03;;;;;;;;;;;;;;;;;;4202665;28;947;-64
2022/03/15 12:58:24;;;;;;;;;;;;;;;;;;4204486;28;1093;-64
2022/03/15 13:00:45;;;;;;;;;;;;;;;;;;4204200;28;2628;-64
2022/03/15 13:03:05;;;;;;;;;;;;;;;;;;4204303;28;833;-64
2022/03/15 13:05:26;;;;;;;;;;;;;;;;;;4204148;28;1023;-64
2022/03/15 13:07:47;;;;;;;;;;;;;;;;;;4204226;28;1012;-65
2022/03/15 13:10:12;;;;;;;;;;;;;;;;;;4204038;28;1042;-64
2022/03/15 13:12:33;;;;;;;;;;;;;;;;;;4203920;28;937;-65
2022/03/15 13:14:55;;;;;;;;;;;;;;;;;;4203988;28;1018;-65
2022/03/15 13:17:16;;;;;;;;;;;;;;;;;;4203782;28;922;-66
2022/03/15 13:19:37;;;;;;;;;;;;;;;;;;4203862;28;906;-65
2022/03/15 13:21:58;;;;;;;;;;;;;;;;;;4203862;28;1930;-64
2022/03/15 13:24:23;;;;;;;;;;;;;;;;;;4203865;28;873;-65
2022/03/15 13:26:43;;;;;;;;;;;;;;;;;;4203792;28;856;-65
2022/03/15 13:29:08;;;;;;;;;;;;;;;;;;4203973;28;842;-64
2022/03/15 13:31:28;;;;;;;;;;;;;;;;;;4203674;28;892;-65
2022/03/15 13:33:50;;;;;;;;;;;;;;;;;;4203489;28;1321;-65
2022/03/15 13:36:11;;;;;;;;;;;;;;;;;;4203641;28;1029;-64
2022/03/15 13:38:32;;;;;;;;;;;;;;;;;;4203588;28;873;-64
2022/03/15 13:40:53;;;;;;;;;;;;;;;;;;4203539;28;1984;-64
2022/03/15 13:43:15;;;;;;;;;;;;;;;;;;4203670;28;878;-65
2022/03/15 13:45:36;;;;;;;;;;;;;;;;;;4203542;28;1390;-65
2022/03/15 13:47:57;;;;;;;;;;;;;;;;;;4203414;28;1259;-65
2022/03/15 13:50:18;;;;;;;;;;;;;;;;;;4203688;28;1007;-65
2022/03/15 13:52:39;;;;;;;;;;;;;;;;;;4203480;28;1023;-64
2022/03/15 13:55:02;;;;;;;;;;;;;;;;;;4203533;28;868;-65
2022/03/15 13:57:25;;;;;;;;;;;;;;;;;;4203472;28;916;-65
2022/03/15 13:59:46;;;;;;;;;;;;;;;;;;4203152;28;959;-65
2022/03/15 14:02:07;;;;;;;;;;;;;;;;;;4203434;28;1972;-65
2022/03/15 14:04:29;;;;;;;;;;;;;;;;;;4203159;28;1012;-66
2022/03/15 14:06:49;;;;;;;;;;;;;;;;;;4203348;28;1024;-65
2022/03/15 14:09:10;;;;;;;;;;;;;;;;;;4203242;28;1004;-64
2022/03/15 14:11:35;;;;;;;;;;;;;;;;;;4202216;28;846;-66
2022/03/15 14:13:56;;;;;;;;;;;;;;;;;;4203335;28;834;-62
2022/03/15 14:16:17;;;;;;;;;;;;;;;;;;4203215;28;805;-62
2022/03/15 14:18:38;;;;;;;;;;;;;;;;;;4203406;28;819;-62
2022/03/15 14:20:58;;;;;;;;;;;;;;;;;;4203271;28;1922;-62
2022/03/15 14:23:19;;;;;;;;;;;;;;;;;;4203388;28;1134;-62
2022/03/15 14:25:40;;;;;;;;;;;;;;;;;;4203257;28;956;-63
2022/03/15 14:28:00;;;;;;;;;;;;;;;;;;4203381;28;994;-62
2022/03/15 14:30:22;;;;;;;;;;;;;;;;;;4203064;28;835;-62
2022/03/15 14:32:43;;;;;;;;;;;;;;;;;;4188027;28;889;-63
2022/03/15 14:35:06;;;;;;;;;;;;;;;;;;4203130;28;810;-64
2022/03/15 14:37:28;;;;;;;;;;;;;;;;;;4203239;28;1093;-62
2022/03/15 14:39:49;;;;;;;;;;;;;;;;;;4203245;28;919;-62
2022/03/15 14:42:09;;;;;;;;;;;;;;;;;;4203023;28;1910;-64
2022/03/15 14:44:30;;;;;;;;;;;;;;;;;;4198729;28;1355;-63
2022/03/15 14:46:52;;;;;;;;;;;;;;;;;;4201189;28;1232;-62
2022/03/15 14:49:12;;;;;;;;;;;;;;;;;;4203091;28;971;-63
2022/03/15 14:51:33;;;;;;;;;;;;;;;;;;4203987;28;1198;-64
2022/03/15 14:53:55;;;;;;;;;;;;;;;;;;4204517;28;941;-64
2022/03/15 14:56:15;;;;;;;;;;;;;;;;;;4204206;28;959;-63
2022/03/15 14:58:37;;;;;;;;;;;;;;;;;;4204201;28;865;-64
2022/03/15 15:00:58;;;;;;;;;;;;;;;;;;4203994;28;962;-65
2022/03/15 15:03:18;;;;;;;;;;;;;;;;;;4204294;28;826;-65
2022/03/15 15:05:42;;;;;;;;;;;;;;;;;;4204131;28;1044;-63
2022/03/15 15:08:04;;;;;;;;;;;;;;;;;;4203725;28;1013;-64
2022/03/15 15:10:26;;;;;;;;;;;;;;;;;;4204090;28;810;-63
2022/03/15 15:12:48;;;;;;;;;;;;;;;;;;4189025;28;1061;-64
2022/03/15 15:15:09;;;;;;;;;;;;;;;;;;4203817;28;799;-64
2022/03/15 15:17:30;;;;;;;;;;;;;;;;;;4204233;28;994;-64
2022/03/15 15:19:52;;;;;;;;;;;;;;;;;;4204427;28;806;-64
2022/03/15 15:22:17;;;;;;;;;;;;;;;;;;4203723;28;1979;-63
2022/03/15 15:24:38;;;;;;;;;;;;;;;;;;4204213;28;822;-64
2022/03/15 15:27:05;;;;;;;;;;;;;;;;;;4204099;28;827;-63
2022/03/15 15:29:25;;;;;;;;;;;;;;;;;;4203209;28;958;-62
2022/03/15 15:31:46;;;;;;;;;;;;;;;;;;4204331;28;976;-62
2022/03/15 15:34:08;;;;;;;;;;;;;;;;;;4204084;28;944;-65
2022/03/15 15:36:29;;;;;;;;;;;;;;;;;;4203141;28;1087;-67
2022/03/15 15:38:52;;;;;;;;;;;;;;;;;;4202648;28;1006;-66
2022/03/15 15:41:13;;;;;;;;;;;;;;;;;;4203893;28;877;-64
2022/03/15 15:43:35;;;;;;;;;;;;;;;;;;4203073;28;924;-63
2022/03/15 15:45:56;;;;;;;;;;;;;;;;;;4203989;28;929;-62
2022/03/15 15:48:19;;;;;;;;;;;;;;;;;;4203720;28;937;-63
2022/03/15 15:50:40;;;;;;;;;;;;;;;;;;4203132;28;833;-63
2022/03/15 15:53:02;;;;;;;;;;;;;;;;;;4204082;28;851;-64
2022/03/15 15:55:23;;;;;;;;;;;;;;;;;;4203799;28;914;-63
2022/03/15 15:57:45;;;;;;;;;;;;;;;;;;4201826;28;1144;-62
2022/03/15 16:00:08;;;;;;;;;;;;;;;;;;4202668;28;863;-64
2022/03/15 16:02:35;;;;;;;;;;;;;;;;;;4188147;28;1976;-63
2022/03/15 16:04:56;;;;;;;;;;;;;;;;;;4203628;28;944;-63
2022/03/15 16:07:24;;;;;;;;;;;;;;;;;;4203664;28;1056;-63
2022/03/15 16:09:45;;;;;;;;;;;;;;;;;;4203844;28;935;-62
2022/03/15 16:12:07;;;;;;;;;;;;;;;;;;4203684;28;1111;-64
2022/03/15 16:14:28;;;;;;;;;;;;;;;;;;4202501;28;1110;-63
2022/03/15 16:16:48;;;;;;;;;;;;;;;;;;4203579;28;815;-64
2022/03/15 16:19:09;;;;;;;;;;;;;;;;;;4203799;28;952;-67
2022/03/15 16:21:30;;;;;;;;;;;;;;;;;;4203019;28;1044;-67
2022/03/15 16:23:51;;;;;;;;;;;;;;;;;;4203117;28;1014;-63
2022/03/15 16:26:12;;;;;;;;;;;;;;;;;;4203377;28;930;-65
2022/03/15 16:28:33;;;;;;;;;;;;;;;;;;4202674;28;815;-66
2022/03/15 16:30:54;;;;;;;;;;;;;;;;;;4203033;28;828;-63
2022/03/15 16:33:15;;;;;;;;;;;;;;;;;;4203360;28;926;-61
2022/03/15 16:35:36;;;;;;;;;;;;;;;;;;4202728;28;943;-63